sensor_id;sensor_type;location;lat;lon;timestamp;P1;durP1;ratioP1;P2;durP2;ratioP2
1378;SDS011;683;48.738;9.226;2022-10-31T00:01:09;14.63;;;12.50;;
1378;SDS011;683;48.738;9.226;2022-10-31T00:03:37;15.20;;;13.53;;
1378;SDS011;683;48.738;9.226;2022-10-31T00:06:05;19.33;;;13.63;;
1378;SDS011;683;48.738;9.226;2022-10-31T00:08:33;14.80;;;12.90;;
1378;SDS011;683;48.738;9.226;2022-10-31T00:11:00;17.97;;;13.00;;
1378;SDS011;683;48.738;9.226;2022-10-31T00:13:28;17.07;;;13.67;;
1378;SDS011;683;48.738;9.226;2022-10-31T00:15:56;18.60;;;14.33;;
1378;SDS011;683;48.738;9.226;2022-10-31T00:18:24;15.60;;;14.10;;
1378;SDS011;683;48.738;9.226;2022-10-31T00:20:57;18.57;;;14.60;;
1378;SDS011;683;48.738;9.226;2022-10-31T00:23:26;18.63;;;13.80;;
1378;SDS011;683;48.738;9.226;2022-10-31T00:25:53;16.33;;;14.23;;
1378;SDS011;683;48.738;9.226;2022-10-31T00:28:26;18.33;;;12.43;;
1378;SDS011;683;48.738;9.226;2022-10-31T00:30:59;13.70;;;12.30;;
1378;SDS011;683;48.738;9.226;2022-10-31T00:33:26;19.53;;;13.53;;
1378;SDS011;683;48.738;9.226;2022-10-31T00:35:54;14.87;;;13.47;;
1378;SDS011;683;48.738;9.226;2022-10-31T00:38:22;15.60;;;12.13;;
1378;SDS011;683;48.738;9.226;2022-10-31T00:40:49;18.47;;;12.30;;
1378;SDS011;683;48.738;9.226;2022-10-31T00:43:17;13.03;;;11.60;;
1378;SDS011;683;48.738;9.226;2022-10-31T00:45:45;15.00;;;12.70;;
1378;SDS011;683;48.738;9.226;2022-10-31T00:48:14;20.60;;;13.47;;
1378;SDS011;683;48.738;9.226;2022-10-31T00:50:41;19.23;;;13.67;;
1378;SDS011;683;48.738;9.226;2022-10-31T00:53:10;15.10;;;12.60;;
1378;SDS011;683;48.738;9.226;2022-10-31T00:55:37;15.83;;;12.60;;
1378;SDS011;683;48.738;9.226;2022-10-31T00:58:04;16.77;;;13.37;;
1378;SDS011;683;48.738;9.226;2022-10-31T01:00:32;14.70;;;12.23;;
1378;SDS011;683;48.738;9.226;2022-10-31T01:03:01;20.40;;;13.70;;
1378;SDS011;683;48.738;9.226;2022-10-31T01:05:30;18.03;;;14.47;;
1378;SDS011;683;48.738;9.226;2022-10-31T01:07:57;18.50;;;13.93;;
1378;SDS011;683;48.738;9.226;2022-10-31T01:10:26;18.87;;;15.30;;
1378;SDS011;683;48.738;9.226;2022-10-31T01:12:53;20.50;;;14.17;;
1378;SDS011;683;48.738;9.226;2022-10-31T01:15:22;21.47;;;15.00;;
1378;SDS011;683;48.738;9.226;2022-10-31T01:17:50;21.90;;;15.67;;
1378;SDS011;683;48.738;9.226;2022-10-31T01:20:17;20.00;;;14.87;;
1378;SDS011;683;48.738;9.226;2022-10-31T01:22:46;22.10;;;15.90;;
1378;SDS011;683;48.738;9.226;2022-10-31T01:25:14;22.13;;;16.07;;
1378;SDS011;683;48.738;9.226;2022-10-31T01:27:41;21.50;;;16.13;;
1378;SDS011;683;48.738;9.226;2022-10-31T01:30:10;17.60;;;15.77;;
1378;SDS011;683;48.738;9.226;2022-10-31T01:32:38;21.30;;;16.60;;
1378;SDS011;683;48.738;9.226;2022-10-31T01:35:06;18.53;;;16.53;;
1378;SDS011;683;48.738;9.226;2022-10-31T01:37:33;16.17;;;13.97;;
1378;SDS011;683;48.738;9.226;2022-10-31T01:40:02;17.70;;;15.90;;
1378;SDS011;683;48.738;9.226;2022-10-31T01:42:30;23.90;;;16.33;;
1378;SDS011;683;48.738;9.226;2022-10-31T01:44:59;18.90;;;15.30;;
1378;SDS011;683;48.738;9.226;2022-10-31T01:47:32;17.37;;;15.53;;
1378;SDS011;683;48.738;9.226;2022-10-31T01:50:06;22.27;;;16.40;;
1378;SDS011;683;48.738;9.226;2022-10-31T01:52:39;21.33;;;15.43;;
1378;SDS011;683;48.738;9.226;2022-10-31T01:55:11;17.00;;;14.03;;
1378;SDS011;683;48.738;9.226;2022-10-31T01:57:44;24.73;;;15.97;;
1378;SDS011;683;48.738;9.226;2022-10-31T02:00:16;15.57;;;13.97;;
1378;SDS011;683;48.738;9.226;2022-10-31T02:02:45;17.90;;;16.07;;
1378;SDS011;683;48.738;9.226;2022-10-31T02:05:16;16.43;;;13.63;;
1378;SDS011;683;48.738;9.226;2022-10-31T02:07:48;16.50;;;14.80;;
1378;SDS011;683;48.738;9.226;2022-10-31T02:10:28;18.80;;;14.60;;
1378;SDS011;683;48.738;9.226;2022-10-31T02:12:58;19.43;;;13.87;;
1378;SDS011;683;48.738;9.226;2022-10-31T02:15:28;15.37;;;13.67;;
1378;SDS011;683;48.738;9.226;2022-10-31T02:17:58;21.23;;;15.00;;
1378;SDS011;683;48.738;9.226;2022-10-31T02:20:27;16.23;;;13.60;;
1378;SDS011;683;48.738;9.226;2022-10-31T02:26:26;16.60;;;13.40;;
1378;SDS011;683;48.738;9.226;2022-10-31T02:29:14;17.43;;;13.50;;
1378;SDS011;683;48.738;9.226;2022-10-31T02:31:58;21.13;;;13.43;;
1378;SDS011;683;48.738;9.226;2022-10-31T02:34:30;17.90;;;14.00;;
1378;SDS011;683;48.738;9.226;2022-10-31T02:37:05;16.33;;;13.10;;
1378;SDS011;683;48.738;9.226;2022-10-31T02:39:39;20.23;;;13.30;;
1378;SDS011;683;48.738;9.226;2022-10-31T02:42:20;15.67;;;13.90;;
1378;SDS011;683;48.738;9.226;2022-10-31T02:44:58;14.83;;;13.47;;
1378;SDS011;683;48.738;9.226;2022-10-31T02:47:34;16.87;;;14.10;;
1378;SDS011;683;48.738;9.226;2022-10-31T02:50:04;15.67;;;12.87;;
1378;SDS011;683;48.738;9.226;2022-10-31T02:52:37;13.70;;;11.23;;
1378;SDS011;683;48.738;9.226;2022-10-31T02:55:09;15.23;;;11.43;;
1378;SDS011;683;48.738;9.226;2022-10-31T02:57:38;12.23;;;10.70;;
1378;SDS011;683;48.738;9.226;2022-10-31T03:00:07;18.37;;;11.73;;
1378;SDS011;683;48.738;9.226;2022-10-31T03:05:38;15.50;;;13.93;;
1378;SDS011;683;48.738;9.226;2022-10-31T03:08:17;18.03;;;11.63;;
1378;SDS011;683;48.738;9.226;2022-10-31T03:10:51;14.13;;;12.00;;
1378;SDS011;683;48.738;9.226;2022-10-31T03:13:24;15.03;;;12.50;;
1378;SDS011;683;48.738;9.226;2022-10-31T03:16:02;11.40;;;10.33;;
1378;SDS011;683;48.738;9.226;2022-10-31T03:18:38;23.43;;;12.40;;
1378;SDS011;683;48.738;9.226;2022-10-31T03:21:08;16.40;;;11.47;;
1378;SDS011;683;48.738;9.226;2022-10-31T03:23:38;13.13;;;11.20;;
1378;SDS011;683;48.738;9.226;2022-10-31T03:26:07;13.83;;;11.40;;
1378;SDS011;683;48.738;9.226;2022-10-31T03:28:38;14.00;;;12.03;;
1378;SDS011;683;48.738;9.226;2022-10-31T03:31:09;12.80;;;11.30;;
1378;SDS011;683;48.738;9.226;2022-10-31T03:33:40;15.83;;;12.37;;
1378;SDS011;683;48.738;9.226;2022-10-31T03:36:10;12.67;;;10.90;;
1378;SDS011;683;48.738;9.226;2022-10-31T03:38:42;12.37;;;11.17;;
1378;SDS011;683;48.738;9.226;2022-10-31T03:41:16;11.83;;;10.73;;
1378;SDS011;683;48.738;9.226;2022-10-31T03:43:48;15.80;;;12.20;;
1378;SDS011;683;48.738;9.226;2022-10-31T03:46:22;18.03;;;12.03;;
1378;SDS011;683;48.738;9.226;2022-10-31T03:48:54;18.53;;;11.50;;
1378;SDS011;683;48.738;9.226;2022-10-31T03:51:23;17.03;;;11.90;;
1378;SDS011;683;48.738;9.226;2022-10-31T03:53:59;24.00;;;13.47;;
1378;SDS011;683;48.738;9.226;2022-10-31T03:56:32;15.90;;;11.90;;
1378;SDS011;683;48.738;9.226;2022-10-31T03:59:04;17.93;;;13.40;;
1378;SDS011;683;48.738;9.226;2022-10-31T04:01:37;15.57;;;12.93;;
1378;SDS011;683;48.738;9.226;2022-10-31T04:04:11;19.07;;;12.80;;
1378;SDS011;683;48.738;9.226;2022-10-31T04:06:40;14.83;;;12.60;;
1378;SDS011;683;48.738;9.226;2022-10-31T04:09:10;15.53;;;13.10;;
1378;SDS011;683;48.738;9.226;2022-10-31T04:11:40;15.40;;;12.27;;
1378;SDS011;683;48.738;9.226;2022-10-31T04:14:46;15.80;;;12.50;;
1378;SDS011;683;48.738;9.226;2022-10-31T04:17:16;14.47;;;12.30;;
1378;SDS011;683;48.738;9.226;2022-10-31T04:19:48;14.40;;;12.70;;
1378;SDS011;683;48.738;9.226;2022-10-31T04:22:15;16.10;;;13.00;;
1378;SDS011;683;48.738;9.226;2022-10-31T04:24:43;14.33;;;11.73;;
1378;SDS011;683;48.738;9.226;2022-10-31T04:27:13;17.43;;;12.80;;
1378;SDS011;683;48.738;9.226;2022-10-31T04:29:41;18.13;;;13.13;;
1378;SDS011;683;48.738;9.226;2022-10-31T04:32:09;14.13;;;12.70;;
1378;SDS011;683;48.738;9.226;2022-10-31T04:34:37;15.73;;;12.67;;
1378;SDS011;683;48.738;9.226;2022-10-31T04:37:05;14.27;;;12.60;;
1378;SDS011;683;48.738;9.226;2022-10-31T04:39:33;17.10;;;12.93;;
1378;SDS011;683;48.738;9.226;2022-10-31T04:42:20;16.43;;;12.20;;
1378;SDS011;683;48.738;9.226;2022-10-31T04:44:48;16.10;;;12.90;;
1378;SDS011;683;48.738;9.226;2022-10-31T04:47:15;14.50;;;12.53;;
1378;SDS011;683;48.738;9.226;2022-10-31T04:49:43;14.43;;;12.73;;
1378;SDS011;683;48.738;9.226;2022-10-31T04:52:13;12.77;;;11.40;;
1378;SDS011;683;48.738;9.226;2022-10-31T04:54:41;14.57;;;12.33;;
1378;SDS011;683;48.738;9.226;2022-10-31T04:57:28;16.13;;;12.10;;
1378;SDS011;683;48.738;9.226;2022-10-31T04:59:58;18.50;;;12.03;;
1378;SDS011;683;48.738;9.226;2022-10-31T05:02:25;17.57;;;13.53;;
1378;SDS011;683;48.738;9.226;2022-10-31T05:04:55;17.70;;;12.83;;
1378;SDS011;683;48.738;9.226;2022-10-31T05:07:24;13.53;;;11.00;;
1378;SDS011;683;48.738;9.226;2022-10-31T05:09:52;12.77;;;11.57;;
1378;SDS011;683;48.738;9.226;2022-10-31T05:12:19;19.70;;;11.40;;
1378;SDS011;683;48.738;9.226;2022-10-31T05:15:16;23.37;;;12.77;;
1378;SDS011;683;48.738;9.226;2022-10-31T05:18:03;37.50;;;13.50;;
1378;SDS011;683;48.738;9.226;2022-10-31T05:20:49;15.50;;;11.53;;
1378;SDS011;683;48.738;9.226;2022-10-31T05:23:28;11.50;;;10.30;;
1378;SDS011;683;48.738;9.226;2022-10-31T05:25:55;11.50;;;9.57;;
1378;SDS011;683;48.738;9.226;2022-10-31T05:28:22;12.60;;;11.40;;
1378;SDS011;683;48.738;9.226;2022-10-31T05:30:50;11.63;;;10.00;;
1378;SDS011;683;48.738;9.226;2022-10-31T05:33:18;12.20;;;10.60;;
1378;SDS011;683;48.738;9.226;2022-10-31T05:36:04;11.47;;;9.53;;
1378;SDS011;683;48.738;9.226;2022-10-31T05:38:46;13.37;;;10.47;;
1378;SDS011;683;48.738;9.226;2022-10-31T05:41:23;10.63;;;9.73;;
1378;SDS011;683;48.738;9.226;2022-10-31T05:43:53;11.53;;;10.47;;
1378;SDS011;683;48.738;9.226;2022-10-31T05:46:26;11.67;;;10.30;;
1378;SDS011;683;48.738;9.226;2022-10-31T05:49:20;10.33;;;9.50;;
1378;SDS011;683;48.738;9.226;2022-10-31T05:51:56;12.10;;;10.83;;
1378;SDS011;683;48.738;9.226;2022-10-31T05:54:34;12.00;;;10.80;;
1378;SDS011;683;48.738;9.226;2022-10-31T05:57:01;14.33;;;12.93;;
1378;SDS011;683;48.738;9.226;2022-10-31T05:59:29;15.50;;;12.80;;
1378;SDS011;683;48.738;9.226;2022-10-31T06:01:57;13.13;;;11.63;;
1378;SDS011;683;48.738;9.226;2022-10-31T06:04:45;12.03;;;10.93;;
1378;SDS011;683;48.738;9.226;2022-10-31T06:07:13;12.40;;;11.10;;
1378;SDS011;683;48.738;9.226;2022-10-31T06:09:41;14.57;;;11.00;;
1378;SDS011;683;48.738;9.226;2022-10-31T06:12:09;14.17;;;12.70;;
1378;SDS011;683;48.738;9.226;2022-10-31T06:15:12;12.83;;;11.17;;
1378;SDS011;683;48.738;9.226;2022-10-31T06:17:41;15.97;;;13.00;;
1378;SDS011;683;48.738;9.226;2022-10-31T06:20:29;18.53;;;13.27;;
1378;SDS011;683;48.738;9.226;2022-10-31T06:23:04;15.87;;;13.00;;
1378;SDS011;683;48.738;9.226;2022-10-31T06:25:34;12.80;;;11.70;;
1378;SDS011;683;48.738;9.226;2022-10-31T06:28:04;18.10;;;13.20;;
1378;SDS011;683;48.738;9.226;2022-10-31T06:30:54;13.80;;;12.07;;
1378;SDS011;683;48.738;9.226;2022-10-31T06:33:22;15.90;;;12.30;;
1378;SDS011;683;48.738;9.226;2022-10-31T06:35:59;17.43;;;14.43;;
1378;SDS011;683;48.738;9.226;2022-10-31T06:38:27;17.13;;;14.60;;
1378;SDS011;683;48.738;9.226;2022-10-31T06:41:01;15.47;;;13.27;;
1378;SDS011;683;48.738;9.226;2022-10-31T06:43:37;16.47;;;14.47;;
1378;SDS011;683;48.738;9.226;2022-10-31T06:46:31;17.17;;;13.67;;
1378;SDS011;683;48.738;9.226;2022-10-31T06:49:30;21.40;;;13.63;;
1378;SDS011;683;48.738;9.226;2022-10-31T06:52:01;15.97;;;13.27;;
1378;SDS011;683;48.738;9.226;2022-10-31T06:54:29;17.23;;;13.90;;
1378;SDS011;683;48.738;9.226;2022-10-31T06:56:58;15.13;;;12.77;;
1378;SDS011;683;48.738;9.226;2022-10-31T06:59:26;16.47;;;14.77;;
1378;SDS011;683;48.738;9.226;2022-10-31T07:02:17;13.67;;;12.47;;
1378;SDS011;683;48.738;9.226;2022-10-31T07:04:44;15.57;;;13.37;;
1378;SDS011;683;48.738;9.226;2022-10-31T07:07:13;18.20;;;13.97;;
1378;SDS011;683;48.738;9.226;2022-10-31T07:09:41;15.97;;;13.73;;
1378;SDS011;683;48.738;9.226;2022-10-31T07:12:11;14.17;;;12.57;;
1378;SDS011;683;48.738;9.226;2022-10-31T07:14:47;14.10;;;12.70;;
1378;SDS011;683;48.738;9.226;2022-10-31T07:17:14;17.00;;;13.57;;
1378;SDS011;683;48.738;9.226;2022-10-31T07:19:43;14.73;;;13.20;;
1378;SDS011;683;48.738;9.226;2022-10-31T07:22:14;17.63;;;14.07;;
1378;SDS011;683;48.738;9.226;2022-10-31T07:24:43;17.33;;;14.63;;
1378;SDS011;683;48.738;9.226;2022-10-31T07:27:12;14.73;;;13.10;;
1378;SDS011;683;48.738;9.226;2022-10-31T07:29:42;15.30;;;13.63;;
1378;SDS011;683;48.738;9.226;2022-10-31T07:32:10;13.37;;;12.13;;
1378;SDS011;683;48.738;9.226;2022-10-31T07:34:44;13.40;;;12.10;;
1378;SDS011;683;48.738;9.226;2022-10-31T07:37:21;11.97;;;10.70;;
1378;SDS011;683;48.738;9.226;2022-10-31T07:39:48;12.13;;;10.90;;
1378;SDS011;683;48.738;9.226;2022-10-31T07:42:17;11.20;;;10.20;;
1378;SDS011;683;48.738;9.226;2022-10-31T07:44:45;12.93;;;11.63;;
1378;SDS011;683;48.738;9.226;2022-10-31T07:47:21;19.53;;;11.23;;
1378;SDS011;683;48.738;9.226;2022-10-31T07:50:07;16.23;;;11.90;;
1378;SDS011;683;48.738;9.226;2022-10-31T07:53:09;12.50;;;11.13;;
1378;SDS011;683;48.738;9.226;2022-10-31T07:55:48;13.23;;;11.90;;
1378;SDS011;683;48.738;9.226;2022-10-31T07:58:19;10.63;;;9.73;;
1378;SDS011;683;48.738;9.226;2022-10-31T08:00:47;10.90;;;9.33;;
1378;SDS011;683;48.738;9.226;2022-10-31T08:03:23;9.70;;;8.70;;
1378;SDS011;683;48.738;9.226;2022-10-31T08:06:09;9.70;;;8.30;;
1378;SDS011;683;48.738;9.226;2022-10-31T08:08:54;10.57;;;9.50;;
1378;SDS011;683;48.738;9.226;2022-10-31T08:11:22;9.67;;;8.67;;
1378;SDS011;683;48.738;9.226;2022-10-31T08:13:51;10.30;;;8.73;;
1378;SDS011;683;48.738;9.226;2022-10-31T08:16:18;10.03;;;9.10;;
1378;SDS011;683;48.738;9.226;2022-10-31T08:18:54;12.17;;;10.03;;
1378;SDS011;683;48.738;9.226;2022-10-31T08:21:22;11.47;;;10.10;;
1378;SDS011;683;48.738;9.226;2022-10-31T08:23:50;11.30;;;9.93;;
1378;SDS011;683;48.738;9.226;2022-10-31T08:26:20;10.97;;;8.70;;
1378;SDS011;683;48.738;9.226;2022-10-31T08:28:51;11.33;;;9.13;;
1378;SDS011;683;48.738;9.226;2022-10-31T08:31:20;10.30;;;8.60;;
1378;SDS011;683;48.738;9.226;2022-10-31T08:33:49;11.43;;;8.50;;
1378;SDS011;683;48.738;9.226;2022-10-31T08:36:18;10.20;;;9.10;;
1378;SDS011;683;48.738;9.226;2022-10-31T08:38:58;10.53;;;8.90;;
1378;SDS011;683;48.738;9.226;2022-10-31T08:41:27;11.10;;;9.97;;
1378;SDS011;683;48.738;9.226;2022-10-31T08:43:56;11.87;;;10.80;;
1378;SDS011;683;48.738;9.226;2022-10-31T08:46:24;10.33;;;8.83;;
1378;SDS011;683;48.738;9.226;2022-10-31T08:48:52;10.63;;;9.53;;
1378;SDS011;683;48.738;9.226;2022-10-31T08:51:20;11.83;;;8.93;;
1378;SDS011;683;48.738;9.226;2022-10-31T08:53:51;14.73;;;10.77;;
1378;SDS011;683;48.738;9.226;2022-10-31T08:56:37;10.97;;;8.73;;
1378;SDS011;683;48.738;9.226;2022-10-31T08:59:22;10.20;;;9.20;;
1378;SDS011;683;48.738;9.226;2022-10-31T09:02:27;11.67;;;9.50;;
1378;SDS011;683;48.738;9.226;2022-10-31T09:04:58;16.10;;;8.77;;
1378;SDS011;683;48.738;9.226;2022-10-31T09:07:27;10.47;;;8.23;;
1378;SDS011;683;48.738;9.226;2022-10-31T09:09:54;14.00;;;8.70;;
1378;SDS011;683;48.738;9.226;2022-10-31T09:12:22;13.40;;;10.17;;
1378;SDS011;683;48.738;9.226;2022-10-31T09:15:10;9.30;;;8.60;;
1378;SDS011;683;48.738;9.226;2022-10-31T09:17:52;12.10;;;8.87;;
1378;SDS011;683;48.738;9.226;2022-10-31T09:20:36;11.03;;;9.40;;
1378;SDS011;683;48.738;9.226;2022-10-31T09:23:05;9.77;;;8.77;;
1378;SDS011;683;48.738;9.226;2022-10-31T09:25:37;8.30;;;7.60;;
1378;SDS011;683;48.738;9.226;2022-10-31T09:28:24;8.03;;;7.33;;
1378;SDS011;683;48.738;9.226;2022-10-31T09:30:54;9.57;;;7.90;;
1378;SDS011;683;48.738;9.226;2022-10-31T09:33:54;12.57;;;8.63;;
1378;SDS011;683;48.738;9.226;2022-10-31T09:36:44;9.90;;;8.20;;
1378;SDS011;683;48.738;9.226;2022-10-31T09:39:17;12.80;;;8.73;;
1378;SDS011;683;48.738;9.226;2022-10-31T09:41:56;10.20;;;9.13;;
1378;SDS011;683;48.738;9.226;2022-10-31T09:44:46;11.40;;;8.80;;
1378;SDS011;683;48.738;9.226;2022-10-31T09:47:33;9.53;;;7.60;;
1378;SDS011;683;48.738;9.226;2022-10-31T09:50:33;9.80;;;8.40;;
1378;SDS011;683;48.738;9.226;2022-10-31T09:53:34;9.53;;;8.60;;
1378;SDS011;683;48.738;9.226;2022-10-31T09:56:06;13.20;;;9.17;;
1378;SDS011;683;48.738;9.226;2022-10-31T09:58:38;11.47;;;7.27;;
1378;SDS011;683;48.738;9.226;2022-10-31T10:01:30;11.33;;;8.27;;
1378;SDS011;683;48.738;9.226;2022-10-31T10:04:09;9.83;;;7.83;;
1378;SDS011;683;48.738;9.226;2022-10-31T10:07:02;16.43;;;9.07;;
1378;SDS011;683;48.738;9.226;2022-10-31T10:09:56;11.00;;;7.53;;
1378;SDS011;683;48.738;9.226;2022-10-31T10:13:02;8.90;;;8.10;;
1378;SDS011;683;48.738;9.226;2022-10-31T10:15:43;10.10;;;7.10;;
1378;SDS011;683;48.738;9.226;2022-10-31T10:18:36;10.43;;;7.97;;
1378;SDS011;683;48.738;9.226;2022-10-31T10:21:16;9.13;;;8.23;;
1378;SDS011;683;48.738;9.226;2022-10-31T10:23:57;10.23;;;8.50;;
1378;SDS011;683;48.738;9.226;2022-10-31T10:26:34;12.30;;;9.30;;
1378;SDS011;683;48.738;9.226;2022-10-31T10:29:08;11.83;;;10.13;;
1378;SDS011;683;48.738;9.226;2022-10-31T10:31:44;19.87;;;14.03;;
1378;SDS011;683;48.738;9.226;2022-10-31T10:34:17;11.00;;;8.70;;
1378;SDS011;683;48.738;9.226;2022-10-31T10:36:50;15.43;;;13.90;;
1378;SDS011;683;48.738;9.226;2022-10-31T10:39:22;35.57;;;30.40;;
1378;SDS011;683;48.738;9.226;2022-10-31T10:41:52;58.37;;;45.43;;
1378;SDS011;683;48.738;9.226;2022-10-31T10:44:39;40.30;;;30.53;;
1378;SDS011;683;48.738;9.226;2022-10-31T10:47:29;16.13;;;13.10;;
1378;SDS011;683;48.738;9.226;2022-10-31T10:50:06;14.83;;;9.63;;
1378;SDS011;683;48.738;9.226;2022-10-31T10:52:41;11.33;;;9.47;;
1378;SDS011;683;48.738;9.226;2022-10-31T10:55:16;10.53;;;9.50;;
1378;SDS011;683;48.738;9.226;2022-10-31T10:57:55;13.63;;;10.23;;
1378;SDS011;683;48.738;9.226;2022-10-31T11:00:25;14.77;;;9.90;;
1378;SDS011;683;48.738;9.226;2022-10-31T11:02:54;11.20;;;9.20;;
1378;SDS011;683;48.738;9.226;2022-10-31T11:05:23;14.30;;;8.87;;
1378;SDS011;683;48.738;9.226;2022-10-31T11:07:54;18.27;;;8.07;;
1378;SDS011;683;48.738;9.226;2022-10-31T11:10:21;17.43;;;8.60;;
1378;SDS011;683;48.738;9.226;2022-10-31T11:13:03;12.03;;;8.77;;
1378;SDS011;683;48.738;9.226;2022-10-31T11:15:35;10.00;;;7.97;;
1378;SDS011;683;48.738;9.226;2022-10-31T11:18:12;8.30;;;7.50;;
1378;SDS011;683;48.738;9.226;2022-10-31T11:20:50;11.83;;;9.03;;
1378;SDS011;683;48.738;9.226;2022-10-31T11:23:20;8.10;;;7.30;;
1378;SDS011;683;48.738;9.226;2022-10-31T11:25:49;14.33;;;7.20;;
1378;SDS011;683;48.738;9.226;2022-10-31T11:28:19;10.10;;;6.97;;
1378;SDS011;683;48.738;9.226;2022-10-31T11:30:47;7.90;;;6.50;;
1378;SDS011;683;48.738;9.226;2022-10-31T11:33:17;10.13;;;7.03;;
1378;SDS011;683;48.738;9.226;2022-10-31T11:35:49;10.00;;;7.27;;
1378;SDS011;683;48.738;9.226;2022-10-31T11:38:21;7.83;;;6.90;;
1378;SDS011;683;48.738;9.226;2022-10-31T11:40:51;6.90;;;6.27;;
1378;SDS011;683;48.738;9.226;2022-10-31T11:43:24;11.17;;;7.40;;
1378;SDS011;683;48.738;9.226;2022-10-31T11:45:52;12.97;;;8.67;;
1378;SDS011;683;48.738;9.226;2022-10-31T11:48:21;8.33;;;6.80;;
1378;SDS011;683;48.738;9.226;2022-10-31T11:50:50;10.13;;;7.03;;
1378;SDS011;683;48.738;9.226;2022-10-31T11:53:23;9.47;;;8.43;;
1378;SDS011;683;48.738;9.226;2022-10-31T11:56:01;9.03;;;7.30;;
1378;SDS011;683;48.738;9.226;2022-10-31T11:58:31;11.10;;;8.90;;
1378;SDS011;683;48.738;9.226;2022-10-31T12:00:59;11.33;;;9.00;;
1378;SDS011;683;48.738;9.226;2022-10-31T12:03:28;9.27;;;8.20;;
1378;SDS011;683;48.738;9.226;2022-10-31T12:06:03;10.03;;;8.60;;
1378;SDS011;683;48.738;9.226;2022-10-31T12:08:35;10.43;;;7.50;;
1378;SDS011;683;48.738;9.226;2022-10-31T12:11:08;9.73;;;7.47;;
1378;SDS011;683;48.738;9.226;2022-10-31T12:13:50;8.00;;;6.70;;
1378;SDS011;683;48.738;9.226;2022-10-31T12:16:28;12.03;;;6.90;;
1378;SDS011;683;48.738;9.226;2022-10-31T12:19:00;13.00;;;7.93;;
1378;SDS011;683;48.738;9.226;2022-10-31T12:21:38;7.30;;;6.50;;
1378;SDS011;683;48.738;9.226;2022-10-31T12:24:35;9.37;;;7.20;;
1378;SDS011;683;48.738;9.226;2022-10-31T12:27:13;9.63;;;5.50;;
1378;SDS011;683;48.738;9.226;2022-10-31T12:30:00;9.30;;;5.87;;
1378;SDS011;683;48.738;9.226;2022-10-31T12:32:40;6.63;;;5.57;;
1378;SDS011;683;48.738;9.226;2022-10-31T12:35:22;8.07;;;6.37;;
1378;SDS011;683;48.738;9.226;2022-10-31T12:38:08;7.13;;;6.43;;
1378;SDS011;683;48.738;9.226;2022-10-31T12:41:02;10.47;;;6.83;;
1378;SDS011;683;48.738;9.226;2022-10-31T12:43:45;10.97;;;6.40;;
1378;SDS011;683;48.738;9.226;2022-10-31T12:46:18;11.47;;;7.00;;
1378;SDS011;683;48.738;9.226;2022-10-31T12:48:57;8.20;;;6.30;;
1378;SDS011;683;48.738;9.226;2022-10-31T12:51:47;9.47;;;6.50;;
1378;SDS011;683;48.738;9.226;2022-10-31T12:54:31;8.40;;;6.63;;
1378;SDS011;683;48.738;9.226;2022-10-31T12:57:10;11.30;;;6.73;;
1378;SDS011;683;48.738;9.226;2022-10-31T12:59:49;8.30;;;7.00;;
1378;SDS011;683;48.738;9.226;2022-10-31T13:02:21;8.60;;;7.20;;
1378;SDS011;683;48.738;9.226;2022-10-31T13:04:53;11.27;;;7.17;;
1378;SDS011;683;48.738;9.226;2022-10-31T13:07:24;7.63;;;6.93;;
1378;SDS011;683;48.738;9.226;2022-10-31T13:09:56;14.67;;;8.73;;
1378;SDS011;683;48.738;9.226;2022-10-31T13:12:29;9.43;;;7.10;;
1378;SDS011;683;48.738;9.226;2022-10-31T13:14:59;14.93;;;8.17;;
1378;SDS011;683;48.738;9.226;2022-10-31T13:17:33;11.60;;;6.97;;
1378;SDS011;683;48.738;9.226;2022-10-31T13:20:13;8.90;;;7.03;;
1378;SDS011;683;48.738;9.226;2022-10-31T13:22:47;15.47;;;7.73;;
1378;SDS011;683;48.738;9.226;2022-10-31T13:25:19;11.80;;;7.87;;
1378;SDS011;683;48.738;9.226;2022-10-31T13:27:53;11.00;;;7.17;;
1378;SDS011;683;48.738;9.226;2022-10-31T13:30:23;8.97;;;7.00;;
1378;SDS011;683;48.738;9.226;2022-10-31T13:32:55;12.00;;;8.00;;
1378;SDS011;683;48.738;9.226;2022-10-31T13:35:28;8.30;;;6.87;;
1378;SDS011;683;48.738;9.226;2022-10-31T13:38:09;7.90;;;6.57;;
1378;SDS011;683;48.738;9.226;2022-10-31T13:40:45;10.70;;;7.40;;
1378;SDS011;683;48.738;9.226;2022-10-31T13:43:28;9.27;;;6.90;;
1378;SDS011;683;48.738;9.226;2022-10-31T13:46:00;10.00;;;6.97;;
1378;SDS011;683;48.738;9.226;2022-10-31T13:48:33;12.67;;;8.23;;
1378;SDS011;683;48.738;9.226;2022-10-31T13:51:05;11.83;;;9.37;;
1378;SDS011;683;48.738;9.226;2022-10-31T13:53:43;11.70;;;8.10;;
1378;SDS011;683;48.738;9.226;2022-10-31T13:56:16;10.67;;;8.00;;
1378;SDS011;683;48.738;9.226;2022-10-31T13:58:59;8.97;;;7.00;;
1378;SDS011;683;48.738;9.226;2022-10-31T14:01:29;9.90;;;7.07;;
1378;SDS011;683;48.738;9.226;2022-10-31T14:04:02;7.83;;;6.37;;
1378;SDS011;683;48.738;9.226;2022-10-31T14:06:36;9.73;;;6.30;;
1378;SDS011;683;48.738;9.226;2022-10-31T14:09:15;9.53;;;6.27;;
1378;SDS011;683;48.738;9.226;2022-10-31T14:11:47;13.33;;;6.07;;
1378;SDS011;683;48.738;9.226;2022-10-31T14:14:17;7.60;;;6.10;;
1378;SDS011;683;48.738;9.226;2022-10-31T14:16:46;11.17;;;7.37;;
1378;SDS011;683;48.738;9.226;2022-10-31T14:19:21;13.17;;;8.10;;
1378;SDS011;683;48.738;9.226;2022-10-31T14:21:49;10.63;;;6.73;;
1378;SDS011;683;48.738;9.226;2022-10-31T14:24:31;15.90;;;12.47;;
1378;SDS011;683;48.738;9.226;2022-10-31T14:27:01;17.53;;;12.50;;
1378;SDS011;683;48.738;9.226;2022-10-31T14:29:32;8.63;;;7.73;;
1378;SDS011;683;48.738;9.226;2022-10-31T14:32:04;9.50;;;7.77;;
1378;SDS011;683;48.738;9.226;2022-10-31T14:34:50;9.83;;;6.57;;
1378;SDS011;683;48.738;9.226;2022-10-31T14:37:24;13.13;;;6.30;;
1378;SDS011;683;48.738;9.226;2022-10-31T14:42:54;11.87;;;6.87;;
1378;SDS011;683;48.738;9.226;2022-10-31T14:45:48;8.47;;;6.80;;
1378;SDS011;683;48.738;9.226;2022-10-31T14:48:33;12.47;;;6.70;;
1378;SDS011;683;48.738;9.226;2022-10-31T14:51:10;9.43;;;6.87;;
1378;SDS011;683;48.738;9.226;2022-10-31T14:53:43;12.17;;;8.60;;
1378;SDS011;683;48.738;9.226;2022-10-31T14:56:14;12.10;;;8.53;;
1378;SDS011;683;48.738;9.226;2022-10-31T14:58:47;11.07;;;8.00;;
1378;SDS011;683;48.738;9.226;2022-10-31T15:01:19;8.90;;;6.93;;
1378;SDS011;683;48.738;9.226;2022-10-31T15:03:51;10.10;;;7.00;;
1378;SDS011;683;48.738;9.226;2022-10-31T15:06:20;10.50;;;7.00;;
1378;SDS011;683;48.738;9.226;2022-10-31T15:08:49;8.90;;;6.57;;
1378;SDS011;683;48.738;9.226;2022-10-31T15:11:19;9.77;;;6.63;;
1378;SDS011;683;48.738;9.226;2022-10-31T15:13:47;10.37;;;6.40;;
1378;SDS011;683;48.738;9.226;2022-10-31T15:16:19;8.50;;;6.10;;
1378;SDS011;683;48.738;9.226;2022-10-31T15:18:50;22.07;;;6.23;;
1378;SDS011;683;48.738;9.226;2022-10-31T15:21:20;7.57;;;5.83;;
1378;SDS011;683;48.738;9.226;2022-10-31T15:23:51;9.57;;;7.00;;
1378;SDS011;683;48.738;9.226;2022-10-31T15:26:20;16.37;;;12.33;;
1378;SDS011;683;48.738;9.226;2022-10-31T15:28:59;14.00;;;8.77;;
1378;SDS011;683;48.738;9.226;2022-10-31T15:31:29;14.40;;;9.30;;
1378;SDS011;683;48.738;9.226;2022-10-31T15:33:58;16.57;;;10.70;;
1378;SDS011;683;48.738;9.226;2022-10-31T15:36:29;14.07;;;9.87;;
1378;SDS011;683;48.738;9.226;2022-10-31T15:38:58;14.00;;;7.40;;
1378;SDS011;683;48.738;9.226;2022-10-31T15:41:29;11.07;;;8.93;;
1378;SDS011;683;48.738;9.226;2022-10-31T15:44:01;12.93;;;8.20;;
1378;SDS011;683;48.738;9.226;2022-10-31T15:46:35;15.23;;;8.57;;
1378;SDS011;683;48.738;9.226;2022-10-31T15:49:02;11.20;;;7.90;;
1378;SDS011;683;48.738;9.226;2022-10-31T15:51:31;10.70;;;8.80;;
1378;SDS011;683;48.738;9.226;2022-10-31T15:54:02;12.70;;;8.73;;
1378;SDS011;683;48.738;9.226;2022-10-31T15:56:30;12.03;;;9.40;;
1378;SDS011;683;48.738;9.226;2022-10-31T15:58:59;12.20;;;8.70;;
1378;SDS011;683;48.738;9.226;2022-10-31T16:01:29;10.80;;;8.80;;